Tropical Cyclones
[Index]
Main Index Home Page Stock Weather Photos Extreme Storms Discussion Storm News and Storm Chasing Reports Tropical Cyclones / Hurricanes / Typhoons Weather Data and Links Wild Fires / Bushfires Weather Observation Techniques Weather Picture Catalogue Tornado Pictures and Reports Stock Video Footage and DVDs for sale
Season 1992-1993 Tropical Cyclone AVIONA Track Map
Season 1992-1993 Summaries: [BoM-AU] [JTWC-AU] [JTWC-SIO] [JTWC-SPAC] [JTWC-SH]
<<- Previous TC | JTWC 1992-1993 Season | Next TC ->>

click for intensity scale information  Lat/long Grid: Show Hide

 Date Labels: Show Hide

Joint Typhoon Warning Centre Cyclone Data

Name: AVIONA

25 Sep 1992 00:00 UTC to 01 Oct 1992 12:00 UTC

    date/time    lat    long     hPa   cat  kts
1992-09-25 00    4.8    86.8                  15          
1992-09-25 06    5.1    87.5                  20          
1992-09-25 12    5.4    88.2                  20          
1992-09-25 18    5.7    88.8                  25          
1992-09-26 00    6.2    89.3                  25          
1992-09-26 06    6.7    89.6                  25          
1992-09-26 12    7.2    89.7                  30          
1992-09-26 18    7.7    89.5                  35          
1992-09-27 00    8.0    89.0            1     40          
1992-09-27 06    8.3    88.5            1     45          
1992-09-27 12    8.5    88.0            1     50          
1992-09-27 18    8.8    87.6            2     55          
1992-09-28 00    9.2    87.3            2     65          
1992-09-28 06    9.7    87.0            2     65          
1992-09-28 12   10.2    86.7            2     65          
1992-09-28 18   10.8    86.4            2     65          
1992-09-29 00   11.5    86.1            2     60          
1992-09-29 06   12.2    85.7            2     55          
1992-09-29 12   12.7    85.1            1     50          
1992-09-29 18   13.2    84.6            1     45          
1992-09-30 00   13.7    84.1            1     45          
1992-09-30 06   14.2    83.6            1     40          
1992-09-30 12   14.5    82.9            1     40          
1992-09-30 18   14.7    82.1            1     40          
1992-10-01 00   14.8    81.3                  35          
1992-10-01 06   14.8    80.5                  35          
1992-10-01 12   14.8    79.7                  30          
Winds are 1-min average.

Tropical cyclone tracks developed by Michael Bath using data from the Joint Typhoon Warning Centre Best Tracks and Google Maps.


[Australian Severe Weather index] [Copyright Notice] [Email Contacts] [Search This Site] [Privacy Policy]
Document: tropical_cyclone_aviona.htm Updated: 18 September 2016